createdAt,value
2018-11-10T00:02:42.806Z,78.06
2018-11-10T00:07:25.857Z,78.01
2018-11-10T00:12:08.747Z,77.78
2018-11-10T00:16:51.919Z,77.30
2018-11-10T00:21:34.816Z,77.30
2018-11-10T00:26:17.941Z,76.66
2018-11-10T00:31:00.847Z,77.00
2018-11-10T00:35:45.972Z,78.05
2018-11-10T00:40:28.898Z,77.36
2018-11-10T00:45:12.074Z,76.87
2018-11-10T00:49:54.975Z,77.67
2018-11-10T00:54:38.040Z,77.04
2018-11-10T00:59:22.196Z,77.67
2018-11-10T01:04:06.034Z,78.99
2018-11-10T01:08:48.915Z,77.11
2018-11-10T01:13:36.965Z,77.20
2018-11-10T01:18:19.862Z,76.52
2018-11-10T01:23:02.747Z,76.15
2018-11-10T01:27:48.963Z,76.14
2018-11-10T01:32:31.838Z,74.93
2018-11-10T01:37:15.810Z,75.67
2018-11-10T01:41:58.691Z,74.85
2018-11-10T01:46:41.735Z,75.32
2018-11-10T01:51:24.590Z,74.79
2018-11-10T01:56:07.520Z,74.94
2018-11-10T02:00:50.371Z,74.90
2018-11-10T02:05:33.257Z,75.04
2018-11-10T02:10:16.144Z,75.04
2018-11-10T02:15:00.091Z,74.84
2018-11-10T02:19:42.989Z,74.28
2018-11-10T02:24:26.229Z,75.54
2018-11-10T02:29:09.106Z,75.98
2018-11-10T02:33:53.175Z,76.16
2018-11-10T02:38:36.081Z,77.06
2018-11-10T02:43:20.163Z,76.51
2018-11-10T02:48:03.059Z,77.06
2018-11-10T02:52:46.301Z,77.12
2018-11-10T02:57:29.385Z,76.66
2018-11-10T03:02:12.264Z,76.71
2018-11-10T03:06:55.401Z,76.93
2018-11-10T03:11:38.941Z,76.68
2018-11-10T03:16:21.944Z,76.38
2018-11-10T03:21:05.186Z,77.29
2018-11-10T03:25:48.201Z,77.26
2018-11-10T03:30:31.102Z,77.08
2018-11-10T03:35:16.053Z,76.90
2018-11-10T03:39:58.927Z,76.86
2018-11-10T03:44:43.025Z,76.81
2018-11-10T03:49:25.900Z,77.43
2018-11-10T03:54:10.847Z,76.87
2018-11-10T03:58:53.712Z,77.35
2018-11-10T04:03:37.638Z,77.50
2018-11-10T04:08:20.518Z,78.71
2018-11-10T04:13:03.489Z,77.46
2018-11-10T04:17:46.386Z,78.21
2018-11-10T04:22:34.843Z,78.09
2018-11-10T04:27:17.986Z,79.59
2018-11-10T04:32:00.833Z,80.82
2018-11-10T04:36:43.746Z,82.61
2018-11-10T04:41:26.982Z,82.90
2018-11-10T04:46:11.068Z,82.14
2018-11-10T04:50:54.081Z,81.40
2018-11-10T04:55:37.070Z,80.07
2018-11-10T05:00:19.942Z,79.65
2018-11-10T05:05:03.113Z,80.08
2018-11-10T05:09:45.962Z,80.09
2018-11-10T05:14:29.090Z,80.76
2018-11-10T05:19:11.991Z,80.79
2018-11-10T05:23:55.133Z,80.56
2018-11-10T05:28:38.009Z,81.14
2018-11-10T05:33:21.114Z,81.34
2018-11-10T05:38:04.427Z,80.97
2018-11-10T05:42:47.312Z,81.45
2018-11-10T05:47:30.213Z,81.27
2018-11-10T05:52:13.074Z,80.40
2018-11-10T05:56:56.057Z,81.37
2018-11-10T06:01:38.984Z,81.24
2018-11-10T06:06:23.119Z,81.15
2018-11-10T06:11:06.085Z,81.55
2018-11-10T06:15:49.156Z,82.51
2018-11-10T06:20:32.017Z,81.84
2018-11-10T06:25:15.170Z,81.33
2018-11-10T06:29:58.033Z,80.68
2018-11-10T06:34:41.210Z,80.10
2018-11-10T06:39:24.182Z,79.95
2018-11-10T06:44:08.684Z,80.02
2018-11-10T06:48:51.547Z,79.65
2018-11-10T06:53:34.465Z,81.44
2018-11-10T06:58:17.310Z,80.54
2018-11-10T07:03:01.307Z,78.99
2018-11-10T07:07:44.178Z,77.25
2018-11-10T07:12:27.055Z,79.72
2018-11-10T07:17:10.905Z,77.35
2018-11-10T07:21:53.766Z,76.01
2018-11-10T07:26:36.954Z,78.48
2018-11-10T07:31:19.794Z,79.37
2018-11-10T07:36:02.763Z,73.00
2018-11-10T07:40:45.654Z,75.96
2018-11-10T07:45:28.810Z,76.25
2018-11-10T07:50:11.870Z,74.46
2018-11-10T07:54:54.895Z,72.08
2018-11-10T07:59:37.811Z,73.44
2018-11-10T08:04:20.876Z,74.48
2018-11-10T08:09:05.411Z,73.95
2018-11-10T08:13:48.366Z,70.38
2018-11-10T08:18:31.348Z,70.93
2018-11-10T08:23:14.480Z,68.62
2018-11-10T08:27:57.323Z,70.06
2018-11-10T08:32:41.921Z,67.82
2018-11-10T08:37:24.773Z,69.83
2018-11-10T08:42:07.674Z,69.27
2018-11-10T08:46:52.670Z,68.48
2018-11-10T08:51:35.548Z,67.31
2018-11-10T08:56:19.034Z,65.87
2018-11-10T09:01:01.903Z,66.05
2018-11-10T09:05:46.035Z,66.87
2018-11-10T09:10:28.910Z,65.57
2018-11-10T09:15:13.510Z,67.22
2018-11-10T09:19:56.354Z,65.61
2018-11-10T09:24:39.362Z,64.38
2018-11-10T09:29:22.283Z,67.54
2018-11-10T09:34:05.437Z,65.15
2018-11-10T09:38:48.378Z,63.34
2018-11-10T09:43:32.154Z,61.88
2018-11-10T09:48:15.111Z,60.74
2018-11-10T09:52:58.333Z,59.54
2018-11-10T09:57:41.409Z,59.15
2018-11-10T10:02:24.877Z,58.04
2018-11-10T10:07:07.377Z,60.07
2018-11-10T10:11:50.276Z,58.15
2018-11-10T10:16:33.372Z,57.27
2018-11-10T10:21:16.252Z,58.06
2018-11-10T10:25:59.376Z,55.69
2018-11-10T10:30:42.254Z,58.06
2018-11-10T10:35:25.604Z,56.55
2018-11-10T10:40:09.942Z,57.34
2018-11-10T10:44:52.903Z,57.26
2018-11-10T10:49:35.765Z,55.26
2018-11-10T10:54:22.245Z,56.49
2018-11-10T10:59:05.561Z,55.11
2018-11-10T11:03:50.475Z,54.55
2018-11-10T11:08:33.322Z,52.67
2018-11-10T11:13:16.399Z,51.75
2018-11-10T11:17:59.331Z,51.52
2018-11-10T11:22:44.436Z,52.25
2018-11-10T11:27:27.890Z,50.98
2018-11-10T11:32:11.337Z,51.60
2018-11-10T11:36:54.201Z,54.77
2018-11-10T11:41:37.121Z,54.09
2018-11-10T11:46:20.095Z,55.07
2018-11-10T11:51:03.063Z,54.83
2018-11-10T11:55:49.485Z,54.45
2018-11-10T12:00:32.348Z,54.00
2018-11-10T12:05:17.187Z,54.91
2018-11-10T12:10:00.032Z,52.95
2018-11-10T12:14:48.474Z,53.52
2018-11-10T12:19:31.341Z,53.04
2018-11-10T12:24:14.430Z,52.62
2018-11-10T12:28:57.294Z,52.51
2018-11-10T12:33:40.210Z,53.62
2018-11-10T12:38:23.090Z,53.94
2018-11-10T12:43:07.024Z,54.61
2018-11-10T12:47:49.917Z,54.29
2018-11-10T12:52:33.041Z,55.23
2018-11-10T12:57:15.939Z,55.68
2018-11-10T13:02:00.948Z,56.87
2018-11-10T13:06:43.826Z,56.57
2018-11-10T13:11:26.793Z,56.27
2018-11-10T13:16:09.754Z,56.81
2018-11-10T13:20:52.633Z,56.23
2018-11-10T13:25:36.511Z,56.56
2018-11-10T13:30:19.418Z,56.89
2018-11-10T13:35:02.353Z,57.41
2018-11-10T13:39:45.897Z,56.57
2018-11-10T13:44:30.877Z,57.93
2018-11-10T13:49:15.617Z,57.26
2018-11-10T13:54:00.087Z,58.63
2018-11-10T13:58:42.953Z,58.50
2018-11-10T14:03:28.054Z,58.16
2018-11-10T14:08:11.506Z,58.37
2018-11-10T14:12:56.498Z,58.82
2018-11-10T14:17:40.841Z,58.80
2018-11-10T14:22:25.002Z,60.39
2018-11-10T14:27:07.959Z,59.85
2018-11-10T14:31:50.987Z,59.75
2018-11-10T14:36:33.872Z,60.04
2018-11-10T14:41:16.755Z,60.87
2018-11-10T14:46:02.903Z,60.52
2018-11-10T14:50:46.695Z,61.22
2018-11-10T14:55:30.246Z,61.30
2018-11-10T15:00:24.323Z,61.33
2018-11-10T15:05:07.960Z,61.27
2018-11-10T15:09:50.850Z,62.37
2018-11-10T15:14:33.835Z,61.37
2018-11-10T15:19:16.799Z,61.34
2018-11-10T15:24:01.995Z,60.70
2018-11-10T15:28:45.042Z,61.78
2018-11-10T15:33:30.002Z,62.66
2018-11-10T15:38:13.038Z,61.79
2018-11-10T15:42:57.039Z,62.25
2018-11-10T15:47:40.585Z,61.86
2018-11-10T15:52:23.548Z,63.01
2018-11-10T15:57:10.798Z,63.06
2018-11-10T16:01:54.810Z,62.37
2018-11-10T16:06:37.727Z,64.77
2018-11-10T16:11:20.705Z,65.35
2018-11-10T16:16:03.594Z,63.67
2018-11-10T16:20:46.593Z,63.65
2018-11-10T16:25:29.620Z,63.36
2018-11-10T16:30:15.731Z,63.83
2018-11-10T16:34:58.733Z,63.83
2018-11-10T16:39:41.620Z,64.28
2018-11-10T16:44:24.865Z,63.14
2018-11-10T16:49:07.958Z,64.25
2018-11-10T16:53:54.442Z,65.24
2018-11-10T16:58:37.887Z,67.28
2018-11-10T17:03:20.870Z,65.31
2018-11-10T17:08:03.815Z,65.92
2018-11-10T17:12:46.880Z,65.52
2018-11-10T17:17:29.779Z,66.81
2018-11-10T17:22:12.988Z,67.23
2018-11-10T17:26:55.915Z,67.50
2018-11-10T17:31:38.983Z,68.56
2018-11-10T17:36:21.911Z,67.60
2018-11-10T17:41:05.127Z,67.81
2018-11-10T17:45:48.049Z,69.13
2018-11-10T17:50:31.099Z,69.31
2018-11-10T17:55:16.092Z,70.26
2018-11-10T17:59:59.006Z,71.81
2018-11-10T18:04:41.972Z,71.58
2018-11-10T18:09:24.902Z,71.80
2018-11-10T18:14:08.928Z,70.35
2018-11-10T18:18:51.897Z,70.08
2018-11-10T18:23:35.091Z,71.12
2018-11-10T18:28:18.022Z,71.42
2018-11-10T18:33:04.092Z,70.60
2018-11-10T18:37:47.002Z,71.34
2018-11-10T18:42:30.578Z,70.65
2018-11-10T18:47:13.495Z,71.00
2018-11-10T18:51:56.440Z,71.25
2018-11-10T18:56:39.446Z,72.29
2018-11-10T19:01:23.438Z,72.66
2018-11-10T19:06:06.462Z,71.03
2018-11-10T19:10:49.408Z,72.34
2018-11-10T19:15:32.360Z,73.25
2018-11-10T19:20:16.939Z,73.27
2018-11-10T19:25:00.947Z,73.32
2018-11-10T19:29:43.949Z,73.73
2018-11-10T19:34:26.935Z,74.89
2018-11-10T19:39:11.923Z,73.32
2018-11-10T19:43:57.259Z,74.66
2018-11-10T19:48:40.141Z,74.92
2018-11-10T19:53:24.000Z,75.45
2018-11-10T19:58:06.953Z,76.21
2018-11-10T20:02:50.969Z,75.33
2018-11-10T20:07:33.950Z,74.54
2018-11-10T20:12:17.999Z,73.84
2018-11-10T20:17:00.940Z,74.58
2018-11-10T20:21:43.859Z,73.79
2018-11-10T20:26:26.799Z,73.31
2018-11-10T20:31:46.986Z,73.01
2018-11-10T20:36:33.310Z,73.63
2018-11-10T20:41:16.508Z,73.16
2018-11-10T20:45:59.907Z,75.19
2018-11-10T20:50:43.050Z,75.15
2018-11-10T20:55:25.931Z,74.53
2018-11-10T21:00:11.287Z,75.79
2018-11-10T21:04:54.235Z,75.66
2018-11-10T21:09:37.220Z,74.91
2018-11-10T21:14:21.269Z,75.17
2018-11-10T21:19:04.310Z,75.76
2018-11-10T21:23:47.307Z,75.14
2018-11-10T21:28:30.991Z,75.46
2018-11-10T21:33:16.149Z,76.37
2018-11-10T21:37:59.050Z,77.71
2018-11-10T21:42:42.551Z,76.83
2018-11-10T21:47:25.447Z,77.70
2018-11-10T21:52:08.393Z,78.00
2018-11-10T21:56:51.293Z,77.83
2018-11-10T22:01:34.479Z,77.65
2018-11-10T22:06:17.402Z,77.55
2018-11-10T22:11:00.427Z,78.01
2018-11-10T22:15:43.350Z,78.04
2018-11-10T22:20:26.494Z,78.55
2018-11-10T22:25:10.550Z,78.28
2018-11-10T22:29:53.468Z,79.11
2018-11-10T22:34:36.369Z,78.18
2018-11-10T22:39:20.302Z,78.48
2018-11-10T22:44:03.207Z,78.72
2018-11-10T22:48:46.111Z,79.07
2018-11-10T22:53:29.246Z,79.72
2018-11-10T22:58:12.164Z,79.04
2018-11-10T23:02:57.700Z,79.52
2018-11-10T23:07:40.637Z,79.87
2018-11-10T23:12:23.590Z,80.36
2018-11-10T23:17:06.671Z,80.01
2018-11-10T23:21:49.582Z,79.97
2018-11-10T23:26:32.514Z,79.82
2018-11-10T23:31:15.609Z,79.67
2018-11-10T23:35:58.585Z,80.29
2018-11-10T23:40:42.428Z,80.44
2018-11-10T23:45:25.400Z,80.43
2018-11-10T23:50:10.891Z,80.87
2018-11-10T23:54:53.902Z,81.78
2018-11-10T23:59:36.764Z,81.60
